GOSSGOOY

Guest
Details From GOSS - SAINT LOUIS
To GOOY - Dakar Leopold Sedar Senghor Intl
Flight Number -
Tags generated
Created
Modified
Stats Distance 99 nm / 183 km
Max Altitude 200 ft / 61 m
Waypoints 3
Social Downloads 0
Likes 0
Share VATSIM

Download

Looking for another format? Having issues loading an existing format? Contact us
Advertisement - Login to hide

Notes

Basic altitude profile: - Ascent Rate: 2500ft/min - Ascent Speed: 250kts - Cruise Altitude: 35000ft - Cruise Speed: 420kts - Descent Rate: 1500ft/min - Descent Speed: 250kts Options: - Use NATs: yes - Use PACOTS: yes - Use low airways: yes - Use high airways: no

Route

GOSS YF GOOY

ID Type Via Altitude Latitude Longitude Leg Dist Tot Dist Heading (true) Name
O GOSS APT - 0 ft / 0 m 16.04831˚ -16.45965˚ - 0 nm - SAINT LOUIS
YF VOR - 200 ft / 61 m 14.74483˚ -17.47478˚ 97 nm 97 nm 217° / 217° DAKAR VOR-DME
O GOOY APT - 0 ft / 0 m 14.73971˚ -17.49023˚ 0 nm 98 nm 251° / 251° Dakar Leopold Sedar Senghor Intl

Altitude Profile

Advertisement - Login to hide

GOSS

Details ICAO GOSS (XLS)
Name SAINT LOUIS
Region Senegal
Timezone Africa/Dakar (UTC+0.0)
Stats Elevation 9 ft / 3 m (AMSL)
Location 16.048306° -16.459655°
Runways 2
Magnetic Variation 6.648° W

METAR

GOSS 112100Z 36004KT CAVOK 22/12 Q1012

Decode

TAF

TAF GOSS 111730Z 1118/1218 36008KT CAVOK

Decode

Departure Runways

ID Width Length Bearing (true) Bearing (mag) Surface Threshold Offset Overrun Length
01 125 ft / 38 m 4,325 ft / 1,318 m 4.26° 10.91° Dirt 0 ft / 0 m 0 ft / 0 m
18 100 ft / 30 m 6,261 ft / 1,908 m 172.61° 179.26° Asphalt 0 ft / 0 m 330 ft / 101 m
19 125 ft / 38 m 4,325 ft / 1,318 m 184.26° 190.91° Dirt 0 ft / 0 m 0 ft / 0 m
36 100 ft / 30 m 6,261 ft / 1,908 m 352.61° 359.26° Asphalt 0 ft / 0 m 330 ft / 101 m

GOOY

Details ICAO GOOY (DKR)
Name Dakar Leopold Sedar Senghor Intl
Region Senegal
Timezone Africa/Dakar (UTC+0.0)
Stats Elevation 85 ft / 26 m (AMSL)
Location 14.739711° -17.490226°
Runways 2
Magnetic Variation 7.348° W

METAR

GOOY 112100Z 04008KT 4000 DU NSC 24/17 Q1012

Decode

TAF

TAF GOOY 111730Z 1118/1224 01010KT 4500 DU NSC

Decode

Destination Runways

ID Width Length Bearing (true) Bearing (mag) Surface Threshold Offset Overrun Length
03 98 ft / 30 m 4,921 ft / 1,500 m 22.31° 29.66° Asphalt 0 ft / 0 m 98 ft / 30 m
18 148 ft / 45 m 11,511 ft / 3,509 m 172.57° 179.92° Asphalt 525 ft / 160 m 197 ft / 60 m
21 98 ft / 30 m 4,921 ft / 1,500 m 202.31° 209.66° Asphalt 0 ft / 0 m 1,590 ft / 485 m
36 148 ft / 45 m 11,511 ft / 3,509 m 352.57° 359.92° Asphalt 0 ft / 0 m 197 ft / 60 m

Approach Navaids

Runway Type Ident Frequency Range Bearing (true) Bearing (mag) Slope Elevation
36 Localiser YF 110.30 MHz 18 nm / 33 km 352.33° 359.67° - 65 ft / 20 m (AMSL)
36 Glidescope YF 110.30 MHz 10 nm / 19 km 352.57° 359.92° 3.01° 73 ft / 22 m (AMSL)
36 DME YF 110.30 MHz 18 nm / 33 km - - - 73 ft / 22 m (AMSL)

Popular Alternatives